Time;durP1;ratioP1;P1;durP2;ratioP2;P2;SDS_P1;SDS_P2;PMS_P1;PMS_P2;Temp;Humidity;BMP_temperature;BMP_pressure;BME280_temperature;BME280_humidity;BME280_pressure;Samples;Min_cycle;Max_cycle;Signal;HPM_P1;HPM_P2
2023/10/15 00:00:31;;;;;;;3.23;1.83;;;9.70;72.00;;;11.71;50.86;97861.00;5010955;28;20513;-51
2023/10/15 00:02:59;;;;;;;6.30;1.53;;;9.80;71.70;;;11.75;50.96;97875.72;4993371;28;20046;-51
2023/10/15 00:05:27;;;;;;;4.07;1.43;;;9.90;71.60;;;11.75;50.89;97868.53;5010720;28;20049;-49
2023/10/15 00:07:57;;;;;;;3.70;1.57;;;9.90;71.50;;;11.74;51.25;97874.84;5010371;28;20049;-52
2023/10/15 00:10:27;;;;;;;3.30;1.20;;;9.80;71.50;;;11.75;50.95;97873.03;5010692;28;20042;-51
2023/10/15 00:12:57;;;;;;;4.97;1.60;;;9.80;71.40;;;11.74;51.19;97866.84;5010789;28;20421;-53
2023/10/15 00:15:28;;;;;;;3.57;1.80;;;9.80;71.60;;;11.76;51.03;97862.19;5010528;28;20448;-53
2023/10/15 00:18:00;;;;;;;3.97;2.40;;;9.90;71.70;;;11.80;51.26;97860.84;5009969;28;20041;-50
2023/10/15 00:20:35;;;;;;;2.70;1.20;;;9.90;71.60;;;11.84;51.06;97861.38;5010783;28;20038;-50
2023/10/15 00:23:06;;;;;;;8.90;1.10;;;10.00;71.40;;;11.86;50.73;97861.22;5010756;28;20041;-52
2023/10/15 00:25:37;;;;;;;2.60;1.20;;;10.00;71.20;;;11.86;51.18;97859.38;5001608;28;20046;-49
2023/10/15 00:28:11;;;;;;;4.83;1.20;;;9.90;71.60;;;11.88;51.19;97867.22;5013995;28;20042;-54
2023/10/15 00:30:39;;;;;;;3.40;1.17;;;9.90;72.40;;;11.87;50.70;97861.06;5014606;28;20046;-52
2023/10/15 00:33:11;;;;;;;2.53;1.63;;;9.90;71.70;;;11.87;51.04;97862.91;5014559;28;20413;-51
2023/10/15 00:35:49;;;;;;;3.93;1.50;;;9.90;71.70;;;11.89;51.29;97863.56;5012775;28;20543;-52
2023/10/15 00:38:19;;;;;;;3.93;1.40;;;10.00;71.70;;;11.93;51.08;97865.75;5020311;28;20532;-54
2023/10/15 00:40:53;;;;;;;3.53;1.10;;;10.00;71.50;;;11.93;50.99;97856.94;5013043;28;20053;-51
2023/10/15 00:43:21;;;;;;;5.00;1.50;;;10.10;71.50;;;11.98;51.32;97863.44;5014512;28;20046;-53
2023/10/15 00:45:52;;;;;;;3.73;2.47;;;10.10;71.30;;;12.00;51.36;97865.94;5012668;28;20395;-53
2023/10/15 00:48:33;;;;;;;4.50;1.47;;;10.10;71.20;;;12.03;51.14;97860.25;5004427;28;20054;-53
2023/10/15 00:51:11;;;;;;;2.90;1.53;;;10.20;71.40;;;12.07;51.05;97855.44;5006495;28;20046;-54
2023/10/15 00:53:50;;;;;;;3.73;1.30;;;10.20;71.00;;;12.08;50.88;97855.28;5012616;28;20057;-52
2023/10/15 00:56:25;;;;;;;2.87;1.23;;;10.20;71.00;;;12.07;51.33;97852.78;5020893;28;20049;-52
2023/10/15 01:03:59;;;;;;;6.57;1.40;;;10.30;70.60;;;12.14;51.11;97843.13;5013831;28;20045;-54
2023/10/15 01:06:38;;;;;;;3.17;1.30;;;10.40;70.90;;;12.19;51.22;97838.94;5012285;28;20053;-49
2023/10/15 01:09:18;;;;;;;5.40;1.50;;;10.40;70.50;;;12.25;50.97;97833.91;5012641;28;20068;-50
2023/10/15 01:11:55;;;;;;;3.43;1.53;;;10.40;70.50;;;12.28;50.73;97833.59;5005729;28;20041;-49
2023/10/15 01:14:27;;;;;;;5.17;1.57;;;10.40;69.90;;;12.30;50.99;97828.94;5012693;28;20057;-51
2023/10/15 01:16:55;;;;;;;3.47;1.93;;;10.40;70.00;;;12.28;50.89;97828.25;5012496;28;20058;-50
2023/10/15 01:19:33;;;;;;;5.82;1.23;;;10.40;70.70;;;12.25;50.82;97828.59;5011686;28;20065;-51
2023/10/15 01:22:07;;;;;;;2.90;1.77;;;10.30;70.50;;;12.25;51.06;97821.41;5021172;28;20054;-52
2023/10/15 01:24:41;;;;;;;3.10;1.30;;;10.30;70.50;;;12.27;50.86;97821.25;5012181;28;20053;-50
2023/10/15 01:27:11;;;;;;;5.90;1.40;;;10.40;70.50;;;12.29;50.79;97820.09;5013336;28;20409;-52
2023/10/15 01:29:42;;;;;;;2.60;1.33;;;10.40;70.80;;;12.28;51.04;97818.41;5011734;28;20049;-51
2023/10/15 01:32:31;;;;;;;2.80;1.10;;;10.40;70.60;;;12.27;51.02;97823.91;5012200;28;20046;-51
2023/10/15 01:35:00;;;;;;;1.93;1.27;;;10.40;70.40;;;12.29;50.86;97835.25;5005928;28;20497;-50
2023/10/15 01:37:30;;;;;;;4.80;1.30;;;10.40;71.20;;;12.31;50.81;97822.56;5019524;28;20061;-50
2023/10/15 01:40:01;;;;;;;3.53;1.37;;;10.40;70.80;;;12.35;51.22;97829.28;5012182;28;20042;-54
2023/10/15 01:47:54;;;;;;;3.30;1.50;;;10.50;70.60;;;12.41;50.92;97832.09;5011059;28;20496;-51
2023/10/15 01:50:24;;;;;;;4.05;1.95;;;10.50;71.00;;;12.39;50.86;97838.59;5005416;28;20062;-49
2023/10/15 01:53:01;;;;;;;6.35;1.70;;;10.40;71.00;;;12.34;51.03;97836.41;5005932;28;20046;-51
2023/10/15 01:55:30;;;;;;;1.83;1.17;;;10.40;71.10;;;12.34;51.07;97832.94;5011381;28;20050;-50
2023/10/15 01:58:01;;;;;;;5.60;1.23;;;10.40;71.30;;;12.34;51.13;97830.25;5002958;28;20054;-51
2023/10/15 02:03:10;;;;;;;3.53;1.27;;;10.40;71.60;;;12.34;51.48;97832.94;5011719;28;20053;-52
2023/10/15 02:05:44;;;;;;;4.47;1.80;;;10.40;71.50;;;12.33;51.28;97821.41;5012432;28;20052;-54
2023/10/15 02:08:22;;;;;;;3.23;1.33;;;10.40;71.60;;;12.35;51.29;97822.09;5012266;28;20159;-48
2023/10/15 02:10:52;;;;;;;4.53;1.40;;;10.40;71.70;;;12.35;51.25;97818.59;5002923;28;20045;-47
2023/10/15 02:13:23;;;;;;;3.15;1.20;;;10.40;71.50;;;12.36;51.29;97821.06;5003819;28;20135;-48
2023/10/15 02:15:55;;;;;;;2.73;1.33;;;10.40;71.50;;;12.35;51.06;97814.06;5019493;28;20057;-53
2023/10/15 02:18:23;;;;;;;3.83;1.33;;;10.50;71.80;;;12.39;51.11;97811.91;5010851;28;20054;-48
2023/10/15 02:23:20;;;;;;;1.70;1.27;;;10.50;71.70;;;12.44;51.32;97816.72;5011128;28;20058;-52
2023/10/15 02:25:58;;;;;;;3.73;1.17;;;10.60;71.60;;;12.47;51.07;97811.88;5011305;28;20056;-48
2023/10/15 02:28:31;;;;;;;4.10;1.30;;;10.60;71.40;;;12.50;51.06;97808.84;5010886;28;20068;-50
2023/10/15 02:33:38;;;;;;;7.60;1.67;;;10.60;71.30;;;12.53;50.77;97811.22;5010726;28;20049;-52
2023/10/15 02:36:09;;;;;;;2.97;1.27;;;10.60;71.30;;;12.51;51.08;97815.88;5012234;28;20049;-51
2023/10/15 02:38:39;;;;;;;2.67;1.13;;;10.60;71.30;;;12.50;50.99;97810.72;5010783;28;20053;-50
2023/10/15 02:41:07;;;;;;;5.07;1.60;;;10.60;71.60;;;12.50;51.30;97810.72;5011087;28;20058;-48
2023/10/15 02:43:48;;;;;;;2.73;1.30;;;10.50;71.80;;;12.51;51.15;97812.38;5011976;28;20057;-51
2023/10/15 02:46:21;;;;;;;3.20;1.53;;;10.60;71.80;;;12.52;51.28;97806.03;5011853;28;20046;-51
2023/10/15 02:48:53;;;;;;;3.47;1.77;;;10.60;71.80;;;12.49;51.16;97799.19;5010561;28;20094;-54
2023/10/15 02:51:25;;;;;;;6.50;1.63;;;10.60;72.00;;;12.49;51.15;97804.53;5010922;28;20042;-51
2023/10/15 02:54:18;;;;;;;4.37;1.47;;;10.60;72.10;;;12.49;51.25;97809.06;5011867;28;20042;-48
2023/10/15 02:56:46;;;;;;;5.32;1.80;;;10.50;72.40;;;12.45;51.58;97805.06;5011721;28;20583;-50
2023/10/15 02:59:16;;;;;;;5.03;2.23;;;10.50;72.80;;;12.43;51.40;97818.56;5010108;28;20050;-49
2023/10/15 03:01:46;;;;;;;6.17;2.33;;;10.40;72.90;;;12.42;51.62;97816.88;5011610;28;20038;-50
2023/10/15 03:04:32;;;;;;;7.07;1.80;;;10.50;72.90;;;12.41;51.53;97808.06;5010031;28;20041;-52
2023/10/15 03:07:19;;;;;;;6.43;1.83;;;10.50;72.80;;;12.43;51.37;97813.22;5009691;28;20100;-49
2023/10/15 03:09:56;;;;;;;5.23;1.40;;;10.50;72.80;;;12.41;51.87;97809.91;5008837;28;20221;-51
2023/10/15 03:12:25;;;;;;;1.63;1.23;;;10.50;73.00;;;12.39;51.53;97815.41;5010137;28;20053;-49
2023/10/15 03:14:54;;;;;;;2.67;1.30;;;10.40;73.10;;;12.33;51.83;97812.56;5011289;28;20042;-52
2023/10/15 03:17:24;;;;;;;2.97;1.43;;;10.40;73.60;;;12.32;51.91;97806.38;5010560;28;20057;-52
2023/10/15 03:19:54;;;;;;;3.13;1.60;;;10.40;74.00;;;12.34;52.01;97811.56;5011300;28;20045;-49
2023/10/15 03:22:24;;;;;;;3.27;1.40;;;10.40;74.10;;;12.39;51.90;97806.56;5011445;28;20053;-49
2023/10/15 03:24:53;;;;;;;3.30;1.17;;;10.50;73.80;;;12.41;52.04;97805.38;5010177;28;20046;-53
2023/10/15 03:27:26;;;;;;;5.30;2.07;;;10.50;73.70;;;12.45;52.13;97802.38;5011666;28;20050;-51
2023/10/15 03:29:57;;;;;;;4.10;1.60;;;10.50;73.50;;;12.47;51.89;97816.41;5011157;28;20398;-49
2023/10/15 03:32:31;;;;;;;4.30;1.90;;;10.50;73.60;;;12.48;52.16;97812.72;5011411;28;20037;-53
2023/10/15 03:35:08;;;;;;;5.50;1.50;;;10.50;73.60;;;12.47;52.10;97817.22;5017852;28;20042;-51
2023/10/15 03:37:45;;;;;;;3.67;1.60;;;10.50;73.90;;;12.46;52.04;97812.06;5009788;28;20445;-54
2023/10/15 03:41:10;;;;;;;2.03;1.37;;;10.50;74.10;;;12.48;52.07;97818.06;5018817;28;20049;-50
2023/10/15 03:43:39;;;;;;;5.40;1.47;;;10.50;74.20;;;12.51;52.10;97825.75;5011134;28;20050;-50
2023/10/15 03:46:19;;;;;;;5.83;1.77;;;10.50;74.10;;;12.49;52.19;97817.88;5010814;28;20042;-50
2023/10/15 03:48:50;;;;;;;4.63;1.50;;;10.50;74.30;;;12.45;52.56;97821.91;5010588;28;20042;-50
2023/10/15 03:51:20;;;;;;;2.67;1.53;;;10.50;77.00;;;12.42;53.29;97822.22;5011210;28;20042;-51
2023/10/15 03:53:51;;;;;;;6.03;1.70;;;10.40;77.90;;;12.38;53.37;97824.41;5009582;28;20053;-52
2023/10/15 03:56:27;;;;;;;4.67;1.97;;;10.40;78.80;;;12.38;53.51;97819.06;5011107;28;20053;-51
2023/10/15 03:58:55;;;;;;;4.33;1.80;;;10.40;80.00;;;12.35;54.27;97821.25;5017782;28;20057;-51
2023/10/15 04:01:27;;;;;;;2.73;1.67;;;10.30;80.70;;;12.35;54.46;97823.94;5012858;28;20061;-52
2023/10/15 04:03:55;;;;;;;3.00;1.53;;;10.30;82.60;;;12.31;54.28;97827.91;5014052;28;20054;-49
2023/10/15 04:06:23;;;;;;;3.10;1.13;;;10.20;82.00;;;12.28;54.47;97817.59;5014739;28;20536;-50
2023/10/15 04:11:43;;;;;;;4.20;1.63;;;10.10;83.30;;;12.19;55.07;97820.25;5014934;28;20041;-53
2023/10/15 04:14:28;;;;;;;5.17;1.30;;;10.10;84.90;;;12.19;55.40;97819.41;5007967;28;20101;-52
2023/10/15 04:16:59;;;;;;;7.00;2.70;;;10.20;84.70;;;12.18;55.68;97817.75;5013224;28;20088;-50
2023/10/15 04:19:27;;;;;;;5.37;1.33;;;10.20;86.20;;;12.07;56.15;97821.56;5014499;28;20041;-50
2023/10/15 04:22:00;;;;;;;2.43;1.60;;;10.00;86.10;;;12.06;55.73;97824.41;5021885;28;20514;-51
2023/10/15 04:24:36;;;;;;;5.23;1.80;;;10.00;87.30;;;12.07;55.92;97816.25;5014747;28;20046;-52
2023/10/15 04:27:15;;;;;;;5.33;1.50;;;10.10;88.50;;;12.06;56.47;97811.06;5006520;28;20038;-53
2023/10/15 04:29:55;;;;;;;3.87;1.50;;;10.10;87.70;;;12.06;56.62;97819.91;5014197;28;20050;-50
2023/10/15 04:35:05;;;;;;;4.57;1.67;;;10.00;88.40;;;12.08;56.59;97811.72;5014489;28;20049;-50
2023/10/15 04:37:36;;;;;;;2.93;1.60;;;10.00;88.50;;;12.09;56.76;97814.22;5014282;28;20065;-47
2023/10/15 04:40:05;;;;;;;3.17;1.70;;;10.10;89.50;;;12.11;57.24;97814.06;5006101;28;20042;-49
2023/10/15 04:42:51;;;;;;;4.53;1.60;;;10.10;90.30;;;12.11;56.77;97816.75;5021493;28;20042;-48
2023/10/15 04:45:23;;;;;;;;;;;10.10;90.20;;;12.01;57.40;97814.25;5014711;28;20053;-49
2023/10/15 04:47:59;;;;;;;4.73;2.33;;;9.90;89.90;;;12.00;57.42;97818.75;5013466;28;19926;-51
2023/10/15 04:50:29;;;;;;;3.07;1.60;;;9.90;90.90;;;12.01;57.52;97819.56;5014124;28;20050;-52
2023/10/15 04:55:44;;;;;;;3.97;1.77;;;10.00;91.60;;;11.95;57.70;97815.72;5013989;28;20054;-52
2023/10/15 04:58:12;;;;;;;3.70;1.50;;;9.90;91.60;;;11.94;58.00;97819.41;5013793;28;20042;-48
2023/10/15 05:00:47;;;;;;;4.70;1.70;;;9.90;91.50;;;11.90;58.24;97822.56;5013451;28;20045;-53
2023/10/15 05:03:16;;;;;;;3.17;1.60;;;9.80;92.30;;;11.87;58.01;97829.03;5014079;28;20046;-50
2023/10/15 05:05:45;;;;;;;3.87;1.70;;;9.80;91.70;;;11.88;58.16;97830.69;5013481;28;20053;-47
2023/10/15 05:08:13;;;;;;;4.33;1.97;;;9.90;92.40;;;11.90;58.45;97831.38;5013495;28;20049;-51
2023/10/15 05:10:45;;;;;;;4.40;1.93;;;9.90;92.80;;;11.78;58.73;97824.69;5012918;28;20042;-49
2023/10/15 05:13:14;;;;;;;3.27;1.70;;;9.80;92.70;;;11.78;58.60;97832.69;5019279;28;20057;-49
2023/10/15 05:15:44;;;;;;;3.53;1.70;;;9.80;93.20;;;11.80;58.98;97830.69;5013449;28;20045;-48
2023/10/15 05:18:13;;;;;;;8.57;1.97;;;9.90;93.00;;;11.72;59.42;97828.00;5013462;28;20504;-53
2023/10/15 05:20:43;;;;;;;7.17;2.60;;;9.80;94.20;;;11.75;59.68;97822.38;5020744;28;20046;-50
2023/10/15 05:23:11;;;;;;;3.90;2.40;;;9.80;95.00;;;11.72;59.12;97817.34;5013452;28;20046;-49
2023/10/15 05:25:41;;;;;;;4.40;1.70;;;9.70;94.20;;;11.69;59.51;97823.84;5013265;28;20046;-49
2023/10/15 05:28:14;;;;;;;5.63;1.43;;;9.70;94.80;;;11.62;59.33;97817.50;5012103;28;20042;-52
2023/10/15 05:30:42;;;;;;;4.80;1.80;;;9.70;94.20;;;11.45;60.41;97827.28;5013159;28;20037;-52
2023/10/15 05:33:10;;;;;;;5.83;1.80;;;9.50;95.80;;;11.45;60.33;97829.94;5005618;28;20045;-52
2023/10/15 05:35:39;;;;;;;7.23;2.67;;;9.50;96.60;;;11.49;59.96;97847.28;5020239;28;20046;-49
2023/10/15 05:38:08;;;;;;;4.60;1.87;;;9.60;96.50;;;11.49;60.26;97849.13;5012842;28;20046;-49
2023/10/15 05:40:37;;;;;;;6.20;2.07;;;9.50;95.90;;;11.34;61.10;97838.22;5020286;28;20042;-52
2023/10/15 05:43:05;;;;;;;9.60;2.80;;;9.40;97.40;;;11.27;61.56;97838.06;5012538;28;20042;-50
2023/10/15 05:45:33;;;;;;;4.57;1.90;;;9.40;99.10;;;11.36;61.49;97844.22;5013034;28;20042;-52
2023/10/15 05:48:01;;;;;;;4.53;2.23;;;9.50;99.30;;;11.43;61.27;97846.09;5019542;28;20053;-52
2023/10/15 05:50:29;;;;;;;3.93;2.10;;;9.60;98.90;;;11.46;60.85;97847.63;5012753;28;20090;-52
2023/10/15 05:52:57;;;;;;;8.90;2.53;;;9.60;97.00;;;11.43;61.06;97855.94;5019808;28;20054;-50
2023/10/15 05:55:25;;;;;;;4.17;2.00;;;9.60;96.80;;;11.40;61.05;97848.28;5012828;28;20050;-51
2023/10/15 05:57:52;;;;;;;4.53;3.30;;;9.60;96.90;;;11.43;60.95;97851.44;5012304;28;20424;-51
2023/10/15 06:00:26;;;;;;;3.80;2.10;;;9.60;97.50;;;11.47;60.72;97851.94;5012798;28;20045;-50
2023/10/15 06:02:55;;;;;;;;;;;9.60;97.60;;;11.47;60.69;97857.28;5012779;28;20049;-51
2023/10/15 06:05:23;;;;;;;8.30;2.43;;;9.50;96.40;;;11.43;60.62;97867.41;5012352;28;19928;-50
2023/10/15 06:07:54;;;;;;;6.73;2.53;;;9.50;96.70;;;11.43;60.98;97864.75;5012086;28;20057;-50
2023/10/15 06:10:23;;;;;;;4.07;1.97;;;9.50;97.10;;;11.44;60.50;97865.63;5011928;28;20046;-50
2023/10/15 06:12:50;;;;;;;4.77;2.43;;;9.50;96.30;;;11.42;61.00;97868.44;5012190;28;20061;-50
2023/10/15 06:15:18;;;;;;;6.90;3.43;;;9.50;96.60;;;11.39;60.87;97863.41;5012369;28;20517;-51
2023/10/15 06:17:50;;;;;;;6.20;2.73;;;9.50;97.20;;;11.43;60.60;97869.25;5012083;28;20053;-52
2023/10/15 06:20:19;;;;;;;9.47;2.40;;;9.50;97.60;;;11.48;60.62;97871.47;5012412;28;20445;-50
2023/10/15 06:22:49;;;;;;;4.03;2.33;;;9.50;97.60;;;11.49;60.50;97881.13;5011225;28;20053;-51
2023/10/15 06:25:17;;;;;;;8.23;2.57;;;9.50;97.00;;;11.49;60.89;97887.28;5018967;28;20054;-48
2023/10/15 06:27:45;;;;;;;5.07;2.50;;;9.50;96.50;;;11.51;60.98;97887.13;5012123;28;20042;-48
2023/10/15 06:30:16;;;;;;;6.77;2.40;;;9.50;97.10;;;11.56;60.42;97896.31;5012191;28;20065;-48
2023/10/15 06:32:52;;;;;;;3.67;2.00;;;9.60;96.10;;;11.62;60.70;97897.50;5012186;28;20046;-52
2023/10/15 06:35:25;;;;;;;3.27;2.50;;;9.70;95.60;;;11.59;60.75;97893.34;5010748;28;20072;-49
2023/10/15 06:37:57;;;;;;;4.03;2.70;;;9.70;95.20;;;11.64;60.59;97890.16;5011713;28;20060;-54
2023/10/15 06:40:30;;;;;;;5.03;2.80;;;9.70;95.20;;;11.57;60.45;97894.47;5011827;28;20049;-52
2023/10/15 06:43:01;;;;;;;4.80;2.03;;;9.60;94.40;;;11.56;60.77;97901.63;5011601;28;20046;-49
2023/10/15 06:45:31;;;;;;;4.03;2.10;;;9.60;94.60;;;11.46;60.75;97898.28;5011561;28;20117;-52
2023/10/15 06:48:01;;;;;;;6.67;3.20;;;9.60;94.10;;;11.46;60.76;97903.59;5011407;28;20061;-48
2023/10/15 06:50:30;;;;;;;3.67;2.20;;;9.60;93.80;;;11.48;61.00;97906.13;5012160;28;20049;-50
2023/10/15 06:53:01;;;;;;;7.67;2.60;;;9.60;94.10;;;11.56;60.49;97908.81;5011311;28;20042;-48
2023/10/15 06:55:31;;;;;;;9.33;3.00;;;9.70;94.10;;;11.50;60.51;97915.63;5011345;28;20478;-50
2023/10/15 06:58:01;;;;;;;8.87;2.83;;;9.70;93.30;;;11.52;60.77;97918.97;5010468;28;20417;-49
2023/10/15 07:00:31;;;;;;;4.00;1.87;;;9.70;93.60;;;11.29;61.43;97912.53;5011298;28;20525;-49
2023/10/15 07:02:59;;;;;;;5.13;2.37;;;9.60;94.40;;;11.40;61.09;97928.25;5011284;28;20050;-50
2023/10/15 07:05:26;;;;;;;6.97;2.30;;;9.60;94.00;;;11.26;61.58;97921.66;5010767;28;20054;-48
2023/10/15 07:07:56;;;;;;;4.50;3.00;;;9.50;94.40;;;11.25;61.32;97929.84;5010993;28;20053;-51
2023/10/15 07:10:25;;;;;;;4.63;2.37;;;9.50;93.70;;;11.34;61.15;97928.84;5011472;28;20045;-49
2023/10/15 07:12:54;;;;;;;4.37;2.10;;;9.60;93.50;;;11.13;61.45;97931.94;5018324;28;20417;-49
2023/10/15 07:15:24;;;;;;;5.67;2.50;;;9.50;91.80;;;11.19;61.49;97932.13;5018306;28;20046;-50
2023/10/15 07:17:53;;;;;;;6.80;3.10;;;9.50;93.60;;;11.31;61.18;97938.00;5010912;28;20049;-50
2023/10/15 07:20:24;;;;;;;134.23;80.23;;;9.60;93.60;;;11.40;61.25;97928.25;5003572;28;20057;-52
2023/10/15 07:22:54;;;;;;;5.47;2.40;;;9.70;91.80;;;11.41;60.73;97936.06;5010077;28;20042;-53
2023/10/15 07:25:24;;;;;;;4.03;2.57;;;9.70;91.70;;;11.29;61.40;97933.84;5011073;28;20046;-51
2023/10/15 07:27:57;;;;;;;4.83;2.33;;;9.70;92.10;;;11.26;61.46;97932.31;5010092;28;20073;-53
2023/10/15 07:30:26;;;;;;;5.20;2.50;;;9.60;92.30;;;11.38;61.14;97941.72;5011254;28;20034;-51
2023/10/15 07:32:57;;;;;;;7.13;2.57;;;9.70;92.10;;;11.36;61.46;97940.19;5011392;28;20049;-49
2023/10/15 07:35:30;;;;;;;5.33;3.13;;;9.80;91.50;;;11.37;61.30;97947.22;5010621;28;20070;-52
2023/10/15 07:38:02;;;;;;;10.80;3.00;;;9.80;90.40;;;11.31;61.69;97955.84;5017612;28;20413;-51
2023/10/15 07:40:32;;;;;;;6.17;2.83;;;9.80;90.70;;;11.40;62.00;97942.41;5018006;28;20089;-52
2023/10/15 07:43:02;;;;;;;11.07;2.50;;;9.90;92.80;;;11.31;62.16;97946.00;5017277;28;20038;-51
2023/10/15 07:45:32;;;;;;;5.47;2.70;;;10.00;90.80;;;11.40;62.25;97947.72;5010073;28;20491;-49
2023/10/15 07:48:03;;;;;;;3.33;2.33;;;10.00;91.10;;;11.36;62.81;97950.84;5009726;28;20045;-52
2023/10/15 07:50:34;;;;;;;3.73;2.57;;;10.10;91.00;;;11.38;62.03;97951.53;5017150;28;20048;-52
2023/10/15 07:53:03;;;;;;;4.93;2.40;;;10.10;89.60;;;11.36;61.96;97954.38;5010586;28;20498;-49
2023/10/15 07:55:32;;;;;;;3.80;2.33;;;10.10;88.90;;;11.49;61.67;97958.44;5010681;28;20049;-47
2023/10/15 07:57:59;;;;;;;7.20;2.60;;;10.10;88.60;;;11.50;61.59;97960.13;5008150;28;20414;-51
2023/10/15 08:00:29;;;;;;;6.90;2.60;;;10.10;88.70;;;11.54;61.43;97961.47;5009574;28;20053;-50
2023/10/15 08:02:58;;;;;;;8.20;3.00;;;10.10;88.80;;;11.40;61.58;97957.56;5010174;28;20038;-47
2023/10/15 08:05:31;;;;;;;4.17;2.30;;;10.00;88.40;;;11.39;61.01;97961.22;5010376;28;20141;-50
2023/10/15 08:08:01;;;;;;;3.97;2.40;;;10.00;87.60;;;11.45;60.80;97963.25;5010203;28;20046;-49
2023/10/15 08:10:33;;;;;;;4.77;2.40;;;10.00;87.40;;;11.40;60.58;97957.56;5009525;28;20049;-50
2023/10/15 08:13:02;;;;;;;3.70;1.93;;;10.00;87.50;;;11.40;60.50;97965.56;5010319;28;20057;-47
2023/10/15 08:15:29;;;;;;;4.50;2.20;;;10.00;86.30;;;11.37;60.46;97965.88;5010699;28;20049;-49
2023/10/15 08:17:57;;;;;;;6.60;2.23;;;10.00;85.90;;;11.34;60.79;97969.69;5010325;28;20042;-51
2023/10/15 08:20:26;;;;;;;6.55;2.63;;;10.00;86.30;;;11.60;60.26;97976.81;5001705;28;20037;-49
2023/10/15 08:22:54;;;;;;;3.80;2.17;;;10.10;86.00;;;11.54;59.70;97972.97;5016872;28;20049;-47
2023/10/15 08:25:22;;;;;;;2.73;2.00;;;10.10;85.20;;;11.37;59.48;97973.88;5008883;28;20049;-48
2023/10/15 08:27:50;;;;;;;6.73;2.03;;;10.00;82.70;;;11.33;59.57;97975.19;5010261;28;20038;-50
2023/10/15 08:30:18;;;;;;;3.33;2.00;;;10.00;83.10;;;11.43;59.28;97973.22;5010640;28;20046;-48
2023/10/15 08:32:47;;;;;;;3.27;1.70;;;10.00;82.20;;;11.39;59.14;97979.88;5010609;28;20042;-48
2023/10/15 08:35:16;;;;;;;2.87;1.47;;;9.90;83.10;;;11.51;59.01;97965.25;5010548;28;20046;-45
2023/10/15 08:37:45;;;;;;;6.17;2.10;;;10.00;83.00;;;11.43;59.05;97973.22;5001138;28;20425;-49
2023/10/15 08:40:17;;;;;;;5.57;1.70;;;9.90;84.20;;;11.53;58.99;97976.59;5017321;28;20074;-48
2023/10/15 08:43:10;;;;;;;5.47;1.90;;;10.00;83.60;;;11.50;58.84;97979.59;5017619;28;20046;-49
2023/10/15 08:45:42;;;;;;;7.60;2.03;;;10.00;84.00;;;11.38;59.03;97984.38;5004038;28;20046;-47
2023/10/15 08:48:12;;;;;;;5.80;2.30;;;9.90;84.10;;;11.43;59.03;97981.22;5011917;28;20057;-48
2023/10/15 08:50:42;;;;;;;5.33;2.67;;;9.90;83.90;;;11.20;59.08;97970.25;5021119;28;20429;-50
2023/10/15 08:53:11;;;;;;;4.47;1.90;;;9.80;83.50;;;11.33;59.06;97970.69;5021186;28;20045;-49
2023/10/15 08:55:41;;;;;;;2.63;1.70;;;9.90;83.40;;;11.42;59.07;97977.72;5013988;28;20049;-47
2023/10/15 08:58:09;;;;;;;6.57;2.20;;;10.00;83.90;;;11.40;59.26;97977.06;5020585;28;20049;-51
2023/10/15 09:00:39;;;;;;;4.95;1.90;;;10.10;83.50;;;11.46;58.69;97980.06;5013606;28;20049;-49
2023/10/15 09:03:13;;;;;;;5.50;4.10;;;10.20;81.00;;;11.56;58.39;97973.63;5020857;28;20386;-52
2023/10/15 09:05:42;;;;;;;3.93;2.80;;;10.30;79.90;;;11.57;58.63;97970.00;5013739;28;20046;-51
2023/10/15 09:08:13;;;;;;;5.70;2.43;;;10.30;80.20;;;11.60;57.94;97979.47;5013291;28;20046;-49
2023/10/15 09:10:41;;;;;;;5.63;3.60;;;10.40;78.30;;;11.43;58.36;97976.72;5020477;28;20049;-50
2023/10/15 09:13:14;;;;;;;5.30;3.23;;;10.40;78.50;;;11.67;58.53;97982.34;5013223;28;20053;-48
2023/10/15 09:15:45;;;;;;;8.53;3.07;;;10.40;80.20;;;11.76;57.88;97978.72;5013724;28;20424;-51
2023/10/15 09:18:16;;;;;;;5.13;2.20;;;10.60;78.50;;;11.73;57.26;97982.56;5020362;28;20421;-53
2023/10/15 09:20:51;;;;;;;9.03;2.17;;;10.60;76.10;;;11.99;57.20;97985.16;5013591;28;20050;-50
2023/10/15 09:23:23;;;;;;;2.73;1.80;;;10.80;77.00;;;12.02;57.14;97986.69;5013844;28;20049;-51
2023/10/15 09:25:53;;;;;;;3.55;1.60;;;10.90;77.00;;;12.17;57.29;97986.88;5004427;28;20057;-53
2023/10/15 09:28:22;;;;;;;4.72;2.08;;;11.10;77.20;;;12.33;56.48;97991.41;5013067;28;20054;-54
2023/10/15 09:30:51;;;;;;;3.87;1.60;;;11.30;74.50;;;12.11;54.62;97992.88;5013267;28;20049;-53
2023/10/15 09:33:28;;;;;;;5.60;1.85;;;11.20;69.00;;;12.15;55.05;97997.72;5012863;28;20045;-54
2023/10/15 09:35:57;;;;;;;2.80;1.50;;;11.10;71.50;;;12.09;54.89;97989.53;5012795;28;20041;-53
2023/10/15 09:38:25;;;;;;;6.72;2.25;;;11.10;71.30;;;12.24;54.58;97992.41;5012735;28;20430;-57
2023/10/15 09:40:56;;;;;;;7.28;2.15;;;11.20;71.10;;;12.35;54.22;97997.47;5013003;28;20049;-57
2023/10/15 09:43:36;;;;;;;3.80;1.55;;;11.20;70.10;;;12.22;53.65;97997.91;5020071;28;20532;-53
2023/10/15 09:46:06;;;;;;;3.97;1.83;;;11.10;70.50;;;12.05;53.82;97997.03;5012943;28;20045;-56
2023/10/15 09:48:36;;;;;;;5.72;1.63;;;10.80;70.50;;;12.00;53.65;97991.38;5011754;28;20044;-55
2023/10/15 09:51:07;;;;;;;3.70;1.88;;;10.70;70.00;;;11.80;53.06;97999.56;5020122;28;20508;-54
2023/10/15 09:53:35;;;;;;;5.70;1.70;;;10.50;68.60;;;11.98;52.85;97988.84;5011927;28;20045;-57
2023/10/15 09:56:07;;;;;;;4.27;1.70;;;10.50;69.60;;;11.92;53.40;97992.16;5011281;28;20038;-57
2023/10/15 09:58:37;;;;;;;12.63;2.47;;;10.50;70.90;;;11.94;53.25;97986.66;5012037;28;20513;-56
2023/10/15 10:01:17;;;;;;;2.20;1.53;;;10.60;70.80;;;12.01;53.37;97985.00;5019689;28;20050;-57
2023/10/15 10:03:47;;;;;;;4.78;1.75;;;10.70;70.70;;;12.08;53.58;97983.38;5013128;28;20072;-55
2023/10/15 10:06:37;;;;;;;3.88;1.83;;;10.90;70.80;;;12.28;52.98;97986.59;5011731;28;20038;-54
2023/10/15 10:09:44;;;;;;;3.83;1.88;;;11.00;68.90;;;12.24;54.56;97987.91;5012569;28;20486;-57
2023/10/15 10:12:59;;;;;;;4.28;1.70;;;11.00;73.00;;;12.51;54.96;97977.94;5009164;28;20506;-57
2023/10/15 10:15:34;;;;;;;7.50;2.13;;;11.10;77.20;;;12.38;55.69;98000.63;5012485;28;20496;-54
2023/10/15 10:18:03;;;;;;;3.53;1.98;;;10.90;77.50;;;12.30;55.89;97989.91;5011518;28;20054;-55
2023/10/15 10:20:32;;;;;;;5.47;1.90;;;10.70;81.00;;;12.18;56.10;97988.56;5019689;28;20516;-56
2023/10/15 10:23:03;;;;;;;4.87;2.40;;;10.40;82.90;;;12.07;56.66;97991.53;5013060;28;20046;-55
2023/10/15 10:25:45;;;;;;;6.63;2.30;;;10.10;83.60;;;11.89;56.67;97983.63;5012369;28;20042;-54
2023/10/15 10:28:16;;;;;;;4.93;1.73;;;10.00;84.00;;;11.81;56.51;97987.09;5010672;28;20061;-53
2023/10/15 10:30:57;;;;;;;2.87;1.70;;;9.90;82.80;;;11.89;57.01;97987.13;5012135;28;20045;-55
2023/10/15 10:33:44;;;;;;;5.50;2.10;;;10.10;85.70;;;11.98;57.09;97983.50;5012166;28;20053;-53
2023/10/15 10:36:19;;;;;;;6.10;2.00;;;10.20;84.10;;;12.00;58.33;97988.69;5011833;28;20041;-54
2023/10/15 10:39:07;;;;;;;3.23;1.67;;;10.30;87.10;;;12.03;58.12;97988.34;5004956;28;20053;-56
2023/10/15 10:41:39;;;;;;;2.53;1.80;;;10.40;83.80;;;12.11;57.06;97987.53;5011644;28;20045;-54
2023/10/15 10:44:28;;;;;;;6.07;1.93;;;10.40;81.10;;;12.12;56.80;97986.56;5011946;28;20522;-54
2023/10/15 10:46:56;;;;;;;7.07;2.30;;;10.40;81.30;;;11.91;55.81;97978.97;5010657;28;20125;-54
2023/10/15 10:49:39;;;;;;;3.97;1.50;;;10.20;76.40;;;11.69;55.61;97983.00;5009925;28;20034;-55
2023/10/15 10:52:14;;;;;;;3.40;1.60;;;10.10;77.00;;;11.80;55.85;97975.56;5011538;28;20041;-55
2023/10/15 10:54:45;;;;;;;5.43;1.53;;;10.10;78.80;;;11.68;55.66;97973.34;5004072;28;20049;-53
2023/10/15 10:57:18;;;;;;;5.30;2.17;;;10.20;77.40;;;11.71;55.56;97962.34;5011798;28;20511;-56
2023/10/15 10:59:48;;;;;;;2.88;1.10;;;10.30;76.30;;;11.94;56.09;97959.97;5011309;28;20054;-52
2023/10/15 11:02:17;;;;;;;4.43;1.63;;;10.60;78.30;;;12.09;54.63;97976.19;5011342;28;20050;-52
2023/10/15 11:04:45;;;;;;;3.17;1.70;;;10.80;73.50;;;11.97;54.85;97965.00;5018616;28;20038;-52
2023/10/15 11:07:15;;;;;;;3.22;1.23;;;10.90;73.80;;;12.29;54.52;97961.56;5011523;28;20042;-55
2023/10/15 11:09:42;;;;;;;3.47;1.60;;;11.10;70.50;;;12.53;53.90;97968.75;5010262;28;20046;-54